Maersk Kinloss — WMKA — position and weather

sailwx.info

Track history (hours):
 
Tides and Currents Weather Stations Pressure Air Temp Water Temp Dewpoint Dewpoint Depression Visibility Wind Speed Wind Dir Waves Ship Positions

Maersk Kinloss

Owner: Maersk Line, Limited, NORFOLK, VA. More information available from US FCC via Universal Licensing System and Coast Guard Vessel Documentation Center.

Last reported at 2018-Jul-18 03:00 UTC. Time now 2018-Jul-18 07:05 UTC.
Position N 35°00' W 075°00'.

Length 300 m; draft 14.5 m.

Type: Ship (hazmat cat A). MMSI: 338241000.

Wind from 180 at 20 knots

Barometer 1016.3 mb
Air temperature 27.0 ° C
Visibility: greater than 5.4 NM
Dewpoint 13.6 ° C
Water temperature 25.0 ° C

Date/timePositionNaut miles runAvg speedWind from/ knotsBaromVisibWave heightAir tempDewpointWater temp
2018-Jul-18 03:00N 35°00' W 075°00'21716.3 180 / 201016.3 5.4 27.013.625.0
2018-Jul-17 13:41N 38°34' W 074°12'213.1
2018-Jul-17 13:30N 38°36' W 074°11'813.0
2018-Jul-17 12:54N 38°44' W 074°09'512.6
2018-Jul-17 12:29N 38°49' W 074°07'612.6
2018-Jul-17 11:58N 38°55' W 074°05'1612.7
2018-Jul-17 10:43N 39°10' W 074°01'512.5
2018-Jul-17 10:21N 39°15' W 073°60'412.2
2018-Jul-17 10:00N 39°19' W 073°59'611.8
2018-Jul-17 09:30N 39°25' W 073°57'611.7
2018-Jul-17 09:00N 39°31' W 073°55'611.6
2018-Jul-17 08:30N 39°36' W 073°53'611.6
2018-Jul-17 08:00N 39°42' W 073°52'611.6
2018-Jul-17 07:29N 39°48' W 073°51'611.8
2018-Jul-17 06:59N 39°54' W 073°50'611.7
2018-Jul-17 06:30N 39°59' W 073°50'611.8
2018-Jul-17 06:00N 40°05' W 073°49'711.1
2018-Jul-17 05:23N 40°12' W 073°49'6 9.6
2018-Jul-17 04:48N 40°18' W 073°49'6 9.5
2018-Jul-17 04:09N 40°24' W 073°49'3 9.1
2018-Jul-17 03:52N 40°26' W 073°49'613.9
2018-Jul-17 03:27N 40°29' W 073°55'714.6
2018-Jul-17 03:00N 40°34' W 074°02'611.9
2018-Jul-17 02:30N 40°39' W 074°04'3 6.3
2018-Jul-17 02:00N 40°39' W 074°09'1 2.5
2018-Jul-17 01:30N 40°40' W 074°09'0 0.1
2018-Jul-17 00:59N 40°40' W 074°09'0 0.0
2018-Jul-17 00:29N 40°40' W 074°09'0 0.0
2018-Jul-16 23:29N 40°40' W 074°09'0 0.0
2018-Jul-16 22:59N 40°40' W 074°09'0 0.0
2018-Jul-16 22:29N 40°40' W 074°09'0 0.0
2018-Jul-16 21:59N 40°40' W 074°09'0 0.0
2018-Jul-16 21:26N 40°40' W 074°09'0 0.0
2018-Jul-16 20:59N 40°40' W 074°09'0 0.0
2018-Jul-16 20:26N 40°40' W 074°09'0 0.0
2018-Jul-16 19:59N 40°40' W 074°09'0 0.0
2018-Jul-16 19:29N 40°40' W 074°09'0 0.0
2018-Jul-16 18:59N 40°40' W 074°09'0 0.0
2018-Jul-16 18:29N 40°40' W 074°09'0 0.0
2018-Jul-16 17:59N 40°40' W 074°09'0 0.0
2018-Jul-16 17:29N 40°40' W 074°09'0 0.0
2018-Jul-16 16:59N 40°40' W 074°09'0 0.0
2018-Jul-16 16:29N 40°40' W 074°09'0 0.0
2018-Jul-16 15:59N 40°40' W 074°09'0 0.0
2018-Jul-16 15:29N 40°40' W 074°09'0 0.0
2018-Jul-16 14:59N 40°40' W 074°09'0 0.0
2018-Jul-16 14:29N 40°40' W 074°09'0 0.0
2018-Jul-16 13:59N 40°40' W 074°09'0 0.0
2018-Jul-16 13:29N 40°40' W 074°09'0 0.0
2018-Jul-16 12:59N 40°40' W 074°09'0 0.0
2018-Jul-16 12:29N 40°40' W 074°09'0 0.0
2018-Jul-16 11:59N 40°40' W 074°09'0 0.0
2018-Jul-16 11:23N 40°40' W 074°09'0 0.0
2018-Jul-16 10:59N 40°40' W 074°09'0 0.0
2018-Jul-16 10:29N 40°40' W 074°09'0 0.0
2018-Jul-16 10:01N 40°40' W 074°09'1 1.0
2018-Jul-16 09:30N 40°39' W 074°09'2 3.1
2018-Jul-16 09:00N 40°39' W 074°07'3 5.4
2018-Jul-16 08:30N 40°38' W 074°03'4 7.5
2018-Jul-16 08:00N 40°35' W 074°02'612.6
2018-Jul-16 07:30N 40°30' W 073°57'712.3
2018-Jul-16 06:58N 40°27' W 073°49'13 9.3
2018-Jul-16 05:34N 40°29' W 073°32'1 8.7
2018-Jul-16 05:30N 40°29' W 073°31'1014.9
2018-Jul-16 04:51N 40°29' W 073°18'4518.4
2018-Jul-16 02:23N 40°31' W 072°19'2811.7
2018-Jul-16 00:00N 40°30' W 071°42'12821.3 230 / 81018.1 5.4 22.018.921.0
2018-Jul-15 18:00N 40°30' W 068°54'1617.1 120 / 111020.110.8 21.019.417.6
2018-Jul-15 17:02N 40°27' W 068°33'9218.2
2018-Jul-15 12:00N 40°06' W 066°36'16117.9 360 / 121018.1 5.4 21.021.022.0
2018-Jul-15 03:00N 40°00' W 063°06'5518.4 160 / 281020.1 5.4 23.023.025.0
2018-Jul-15 00:00N 40°00' W 061°54'12019.9 230 / 181022.1 5.4 22.017.222.0
2018-Jul-14 18:00N 40°00' W 059°18'11719.5 180 / 221027.110.8 24.017.727.0
2018-Jul-14 12:00N 40°24' W 056°48'11118.5 230 / 181029.1 5.4 27.017.627.0
2018-Jul-14 06:00N 40°42' W 054°24'11018.3 200 / 181031.210.8 23.012.624.0
2018-Jul-14 00:00N 40°54' W 052°00'10918.2 230 / 121033.1 5.4 25.015.126.0
2018-Jul-13 18:00N 41°06' W 049°36'11819.6 250 / 81033.210.8 26.0 7.322.0
2018-Jul-13 12:00N 41°12' W 047°00'22618.8 210 / 121034.2 5.4 25.017.024.0
2018-Jul-13 00:00N 41°18' W 042°00'13118.7 220 / 101039.2 5.4 23.014.624.0
2018-Jul-12 17:00N 41°18' W 039°06'12725.4 190 / 101040.327.0 24.0-10.523.0
2018-Jul-12 12:00N 41°06' W 036°18'25521.3 090 / 41040.2 5.4 24.017.724.0
2018-Jul-12 00:00N 40°42' W 030°42'25020.9 030 / 141038.2 5.4 20.013.022.0
2018-Jul-11 12:00N 40°00' W 025°18'63120.8 330 / 41035.2 5.4 24.017.722.0
2018-Jul-10 05:42N 37°17' W 012°17'421.1
2018-Jul-10 05:30N 37°15' W 012°13'1120.9
2018-Jul-10 04:58N 37°11' W 011°60'1021.0
2018-Jul-10 04:30N 37°08' W 011°48'1020.8
2018-Jul-10 04:00N 37°04' W 011°36'1020.8
2018-Jul-10 03:30N 37°01' W 011°24'1120.9
2018-Jul-10 03:00N 36°57' W 011°11'1020.9
2018-Jul-10 02:30N 36°53' W 010°59'1020.7
2018-Jul-10 02:00N 36°50' W 010°47'1120.7
2018-Jul-10 01:29N 36°46' W 010°34'1020.6
2018-Jul-10 01:00N 36°43' W 010°23'1120.8
2018-Jul-10 00:27N 36°39' W 010°09'47101.0
2018-Jul-10 00:00N 36°30' W 009°12'374781.2 320 / 161024.110.8 20.014.921.0
2018-Jul-09 23:59N 36°36' W 009°58'1021.3
2018-Jul-09 23:30N 36°32' W 009°46'1121.2
2018-Jul-09 23:00N 36°28' W 009°34'1121.3
2018-Jul-09 22:30N 36°24' W 009°22'1120.9
2018-Jul-09 22:00N 36°20' W 009°09'1021.0
2018-Jul-09 21:30N 36°16' W 008°58'1521.0
2018-Jul-09 20:46N 36°10' W 008°40'621.1
2018-Jul-09 20:30N 36°08' W 008°33'1521.2
2018-Jul-09 19:49N 36°03' W 008°16'621.2
2018-Jul-09 19:30N 36°01' W 008°09'1121.1
2018-Jul-09 19:00N 35°57' W 007°56'1121.0
2018-Jul-09 18:30N 35°58' W 007°43'1121.1
2018-Jul-09 18:00N 35°58' W 007°30'1221.4
2018-Jul-09 17:27N 35°57' W 007°16'8419.2
2018-Jul-09 13:04N 35°59' W 005°32'117.8
2018-Jul-09 13:00N 35°59' W 005°30'815.0
2018-Jul-09 12:28N 36°05' W 005°23'4 8.1
2018-Jul-09 11:56N 36°09' W 005°26'0 0.3
2018-Jul-09 11:20N 36°08' W 005°26'0 0.0
2018-Jul-09 10:56N 36°08' W 005°26'0 0.0
2018-Jul-09 10:26N 36°08' W 005°26'0 0.0
2018-Jul-09 09:59N 36°08' W 005°26'0 0.0
2018-Jul-09 09:29N 36°08' W 005°26'0 0.0
2018-Jul-09 08:56N 36°08' W 005°26'0 0.0
2018-Jul-09 05:41N 36°08' W 005°26'0 0.0
2018-Jul-09 05:29N 36°08' W 005°26'0 0.0
2018-Jul-09 04:59N 36°08' W 005°26'0 0.0
2018-Jul-09 04:29N 36°08' W 005°26'0 0.0
2018-Jul-09 03:59N 36°08' W 005°26'0 0.0
2018-Jul-09 03:26N 36°08' W 005°26'0 0.0
2018-Jul-09 02:56N 36°08' W 005°26'0 0.0
2018-Jul-09 02:26N 36°08' W 005°26'0 0.0
2018-Jul-09 01:56N 36°08' W 005°26'0 0.0
2018-Jul-09 01:26N 36°08' W 005°26'0 0.0
2018-Jul-09 00:56N 36°08' W 005°26'0 0.0
2018-Jul-09 00:29N 36°08' W 005°26'0 0.0
2018-Jul-08 23:56N 36°08' W 005°26'0 0.0
2018-Jul-08 23:26N 36°08' W 005°26'0 0.0
2018-Jul-08 22:56N 36°08' W 005°26'0 0.0
2018-Jul-08 22:20N 36°08' W 005°26'0 0.0
2018-Jul-08 21:32N 36°08' W 005°26'0 0.0
2018-Jul-08 21:02N 36°08' W 005°26'0 0.0
2018-Jul-08 20:56N 36°08' W 005°26'0 0.0
2018-Jul-08 20:26N 36°08' W 005°26'0 0.0
2018-Jul-08 19:56N 36°08' W 005°26'0 0.0
2018-Jul-08 19:29N 36°08' W 005°26'0 0.0
2018-Jul-08 18:56N 36°08' W 005°26'0 0.0
2018-Jul-08 18:26N 36°08' W 005°26'0 0.0
2018-Jul-08 17:59N 36°08' W 005°26'0 0.0
2018-Jul-08 17:14N 36°08' W 005°26'0 0.0
2018-Jul-08 16:59N 36°08' W 005°26'0 0.0
2018-Jul-08 16:29N 36°08' W 005°26'0 0.0
2018-Jul-08 15:59N 36°08' W 005°26'0 0.0
2018-Jul-08 15:26N 36°08' W 005°26'0 0.0
2018-Jul-08 14:56N 36°08' W 005°26'0 0.0
2018-Jul-08 14:26N 36°08' W 005°26'0 0.0
2018-Jul-08 13:59N 36°08' W 005°26'0 0.0
2018-Jul-08 13:20N 36°08' W 005°26'0 0.0
2018-Jul-08 12:56N 36°08' W 005°26'0 0.0
2018-Jul-08 12:26N 36°08' W 005°26'0 0.0
2018-Jul-08 11:56N 36°08' W 005°26'1 1.4
2018-Jul-08 11:31N 36°09' W 005°26'5 5.4
2018-Jul-08 10:34N 36°05' W 005°22'0 4.9
2018-Jul-08 10:31N 36°05' W 005°22'5 9.3
2018-Jul-08 10:01N 36°04' W 005°16'8120.1
2018-Jul-08 06:00N 36°06' W 003°36'   080 / 41021.1 5.4 21.010.020.0
Track history (hours):
 
Tides and Currents Weather Stations Pressure Air Temp Water Temp Dewpoint Dewpoint Depression Visibility Wind Speed Wind Dir Waves Ship Positions

Maersk Kinloss

Owner: Maersk Line, Limited, NORFOLK, VA. More information available from US FCC via Universal Licensing System and Coast Guard Vessel Documentation Center.

Last reported at 2018-Jul-18 03:00 UTC. Time now 2018-Jul-18 07:05 UTC.
Position N 35°00' W 075°00'.

Length 300 m; draft 14.5 m.

Type: Ship (hazmat cat A). MMSI: 338241000.

Wind from 180 at 20 knots

Barometer 1016.3 mb
Air temperature 27.0 ° C
Visibility: greater than 5.4 NM
Dewpoint 13.6 ° C
Water temperature 25.0 ° C

Date/timePositionNaut miles runAvg speedWind from/ knotsBaromVisibWave heightAir tempDewpointWater temp
2018-Jul-18 03:00N 35°00' W 075°00'21716.3 180 / 201016.3 5.4 27.013.625.0
2018-Jul-17 13:41N 38°34' W 074°12'213.1
2018-Jul-17 13:30N 38°36' W 074°11'813.0
2018-Jul-17 12:54N 38°44' W 074°09'512.6
2018-Jul-17 12:29N 38°49' W 074°07'612.6
2018-Jul-17 11:58N 38°55' W 074°05'1612.7
2018-Jul-17 10:43N 39°10' W 074°01'512.5
2018-Jul-17 10:21N 39°15' W 073°60'412.2
2018-Jul-17 10:00N 39°19' W 073°59'611.8
2018-Jul-17 09:30N 39°25' W 073°57'611.7
2018-Jul-17 09:00N 39°31' W 073°55'611.6
2018-Jul-17 08:30N 39°36' W 073°53'611.6
2018-Jul-17 08:00N 39°42' W 073°52'611.6
2018-Jul-17 07:29N 39°48' W 073°51'611.8
2018-Jul-17 06:59N 39°54' W 073°50'611.7
2018-Jul-17 06:30N 39°59' W 073°50'611.8
2018-Jul-17 06:00N 40°05' W 073°49'711.1
2018-Jul-17 05:23N 40°12' W 073°49'6 9.6
2018-Jul-17 04:48N 40°18' W 073°49'6 9.5
2018-Jul-17 04:09N 40°24' W 073°49'3 9.1
2018-Jul-17 03:52N 40°26' W 073°49'613.9
2018-Jul-17 03:27N 40°29' W 073°55'714.6
2018-Jul-17 03:00N 40°34' W 074°02'611.9
2018-Jul-17 02:30N 40°39' W 074°04'3 6.3
2018-Jul-17 02:00N 40°39' W 074°09'1 2.5
2018-Jul-17 01:30N 40°40' W 074°09'0 0.1
2018-Jul-17 00:59N 40°40' W 074°09'0 0.0
2018-Jul-17 00:29N 40°40' W 074°09'0 0.0
2018-Jul-16 23:29N 40°40' W 074°09'0 0.0
2018-Jul-16 22:59N 40°40' W 074°09'0 0.0
2018-Jul-16 22:29N 40°40' W 074°09'0 0.0
2018-Jul-16 21:59N 40°40' W 074°09'0 0.0
2018-Jul-16 21:26N 40°40' W 074°09'0 0.0
2018-Jul-16 20:59N 40°40' W 074°09'0 0.0
2018-Jul-16 20:26N 40°40' W 074°09'0 0.0
2018-Jul-16 19:59N 40°40' W 074°09'0 0.0
2018-Jul-16 19:29N 40°40' W 074°09'0 0.0
2018-Jul-16 18:59N 40°40' W 074°09'0 0.0
2018-Jul-16 18:29N 40°40' W 074°09'0 0.0
2018-Jul-16 17:59N 40°40' W 074°09'0 0.0
2018-Jul-16 17:29N 40°40' W 074°09'0 0.0
2018-Jul-16 16:59N 40°40' W 074°09'0 0.0
2018-Jul-16 16:29N 40°40' W 074°09'0 0.0
2018-Jul-16 15:59N 40°40' W 074°09'0 0.0
2018-Jul-16 15:29N 40°40' W 074°09'0 0.0
2018-Jul-16 14:59N 40°40' W 074°09'0 0.0
2018-Jul-16 14:29N 40°40' W 074°09'0 0.0
2018-Jul-16 13:59N 40°40' W 074°09'0 0.0
2018-Jul-16 13:29N 40°40' W 074°09'0 0.0
2018-Jul-16 12:59N 40°40' W 074°09'0 0.0
2018-Jul-16 12:29N 40°40' W 074°09'0 0.0
2018-Jul-16 11:59N 40°40' W 074°09'0 0.0
2018-Jul-16 11:23N 40°40' W 074°09'0 0.0
2018-Jul-16 10:59N 40°40' W 074°09'0 0.0
2018-Jul-16 10:29N 40°40' W 074°09'0 0.0
2018-Jul-16 10:01N 40°40' W 074°09'1 1.0
2018-Jul-16 09:30N 40°39' W 074°09'2 3.1
2018-Jul-16 09:00N 40°39' W 074°07'3 5.4
2018-Jul-16 08:30N 40°38' W 074°03'4 7.5
2018-Jul-16 08:00N 40°35' W 074°02'612.6
2018-Jul-16 07:30N 40°30' W 073°57'712.3
2018-Jul-16 06:58N 40°27' W 073°49'13 9.3
2018-Jul-16 05:34N 40°29' W 073°32'1 8.7
2018-Jul-16 05:30N 40°29' W 073°31'1014.9
2018-Jul-16 04:51N 40°29' W 073°18'4518.4
2018-Jul-16 02:23N 40°31' W 072°19'2811.7
2018-Jul-16 00:00N 40°30' W 071°42'12821.3 230 / 81018.1 5.4 22.018.921.0
2018-Jul-15 18:00N 40°30' W 068°54'1617.1 120 / 111020.110.8 21.019.417.6
2018-Jul-15 17:02N 40°27' W 068°33'9218.2
2018-Jul-15 12:00N 40°06' W 066°36'16117.9 360 / 121018.1 5.4 21.021.022.0
2018-Jul-15 03:00N 40°00' W 063°06'5518.4 160 / 281020.1 5.4 23.023.025.0
2018-Jul-15 00:00N 40°00' W 061°54'12019.9 230 / 181022.1 5.4 22.017.222.0
2018-Jul-14 18:00N 40°00' W 059°18'11719.5 180 / 221027.110.8 24.017.727.0
2018-Jul-14 12:00N 40°24' W 056°48'11118.5 230 / 181029.1 5.4 27.017.627.0
2018-Jul-14 06:00N 40°42' W 054°24'11018.3 200 / 181031.210.8 23.012.624.0
2018-Jul-14 00:00N 40°54' W 052°00'10918.2 230 / 121033.1 5.4 25.015.126.0
2018-Jul-13 18:00N 41°06' W 049°36'11819.6 250 / 81033.210.8 26.0 7.322.0
2018-Jul-13 12:00N 41°12' W 047°00'22618.8 210 / 121034.2 5.4 25.017.024.0
2018-Jul-13 00:00N 41°18' W 042°00'13118.7 220 / 101039.2 5.4 23.014.624.0
2018-Jul-12 17:00N 41°18' W 039°06'12725.4 190 / 101040.327.0 24.0-10.523.0
2018-Jul-12 12:00N 41°06' W 036°18'25521.3 090 / 41040.2 5.4 24.017.724.0
2018-Jul-12 00:00N 40°42' W 030°42'25020.9 030 / 141038.2 5.4 20.013.022.0
2018-Jul-11 12:00N 40°00' W 025°18'63120.8 330 / 41035.2 5.4 24.017.722.0
2018-Jul-10 05:42N 37°17' W 012°17'421.1
2018-Jul-10 05:30N 37°15' W 012°13'1120.9
2018-Jul-10 04:58N 37°11' W 011°60'1021.0
2018-Jul-10 04:30N 37°08' W 011°48'1020.8
2018-Jul-10 04:00N 37°04' W 011°36'1020.8
2018-Jul-10 03:30N 37°01' W 011°24'1120.9
2018-Jul-10 03:00N 36°57' W 011°11'1020.9
2018-Jul-10 02:30N 36°53' W 010°59'1020.7
2018-Jul-10 02:00N 36°50' W 010°47'1120.7
2018-Jul-10 01:29N 36°46' W 010°34'1020.6
2018-Jul-10 01:00N 36°43' W 010°23'1120.8
2018-Jul-10 00:27N 36°39' W 010°09'47101.0
2018-Jul-10 00:00N 36°30' W 009°12'374781.2 320 / 161024.110.8 20.014.921.0
2018-Jul-09 23:59N 36°36' W 009°58'1021.3
2018-Jul-09 23:30N 36°32' W 009°46'1121.2
2018-Jul-09 23:00N 36°28' W 009°34'1121.3
2018-Jul-09 22:30N 36°24' W 009°22'1120.9
2018-Jul-09 22:00N 36°20' W 009°09'1021.0
2018-Jul-09 21:30N 36°16' W 008°58'1521.0
2018-Jul-09 20:46N 36°10' W 008°40'621.1
2018-Jul-09 20:30N 36°08' W 008°33'1521.2
2018-Jul-09 19:49N 36°03' W 008°16'621.2
2018-Jul-09 19:30N 36°01' W 008°09'1121.1
2018-Jul-09 19:00N 35°57' W 007°56'1121.0
2018-Jul-09 18:30N 35°58' W 007°43'1121.1
2018-Jul-09 18:00N 35°58' W 007°30'1221.4
2018-Jul-09 17:27N 35°57' W 007°16'8419.2
2018-Jul-09 13:04N 35°59' W 005°32'117.8
2018-Jul-09 13:00N 35°59' W 005°30'815.0
2018-Jul-09 12:28N 36°05' W 005°23'4 8.1
2018-Jul-09 11:56N 36°09' W 005°26'0 0.3
2018-Jul-09 11:20N 36°08' W 005°26'0 0.0
2018-Jul-09 10:56N 36°08' W 005°26'0 0.0
2018-Jul-09 10:26N 36°08' W 005°26'0 0.0
2018-Jul-09 09:59N 36°08' W 005°26'0 0.0
2018-Jul-09 09:29N 36°08' W 005°26'0 0.0
2018-Jul-09 08:56N 36°08' W 005°26'0 0.0
2018-Jul-09 05:41N 36°08' W 005°26'0 0.0
2018-Jul-09 05:29N 36°08' W 005°26'0 0.0
2018-Jul-09 04:59N 36°08' W 005°26'0 0.0
2018-Jul-09 04:29N 36°08' W 005°26'0 0.0
2018-Jul-09 03:59N 36°08' W 005°26'0 0.0
2018-Jul-09 03:26N 36°08' W 005°26'0 0.0
2018-Jul-09 02:56N 36°08' W 005°26'0 0.0
2018-Jul-09 02:26N 36°08' W 005°26'0 0.0
2018-Jul-09 01:56N 36°08' W 005°26'0 0.0
2018-Jul-09 01:26N 36°08' W 005°26'0 0.0
2018-Jul-09 00:56N 36°08' W 005°26'0 0.0
2018-Jul-09 00:29N 36°08' W 005°26'0 0.0
2018-Jul-08 23:56N 36°08' W 005°26'0 0.0
2018-Jul-08 23:26N 36°08' W 005°26'0 0.0
2018-Jul-08 22:56N 36°08' W 005°26'0 0.0
2018-Jul-08 22:20N 36°08' W 005°26'0 0.0
2018-Jul-08 21:32N 36°08' W 005°26'0 0.0
2018-Jul-08 21:02N 36°08' W 005°26'0 0.0
2018-Jul-08 20:56N 36°08' W 005°26'0 0.0
2018-Jul-08 20:26N 36°08' W 005°26'0 0.0
2018-Jul-08 19:56N 36°08' W 005°26'0 0.0
2018-Jul-08 19:29N 36°08' W 005°26'0 0.0
2018-Jul-08 18:56N 36°08' W 005°26'0 0.0
2018-Jul-08 18:26N 36°08' W 005°26'0 0.0
2018-Jul-08 17:59N 36°08' W 005°26'0 0.0
2018-Jul-08 17:14N 36°08' W 005°26'0 0.0
2018-Jul-08 16:59N 36°08' W 005°26'0 0.0
2018-Jul-08 16:29N 36°08' W 005°26'0 0.0
2018-Jul-08 15:59N 36°08' W 005°26'0 0.0
2018-Jul-08 15:26N 36°08' W 005°26'0 0.0
2018-Jul-08 14:56N 36°08' W 005°26'0 0.0
2018-Jul-08 14:26N 36°08' W 005°26'0 0.0
2018-Jul-08 13:59N 36°08' W 005°26'0 0.0
2018-Jul-08 13:20N 36°08' W 005°26'0 0.0
2018-Jul-08 12:56N 36°08' W 005°26'0 0.0
2018-Jul-08 12:26N 36°08' W 005°26'0 0.0
2018-Jul-08 11:56N 36°08' W 005°26'1 1.4
2018-Jul-08 11:31N 36°09' W 005°26'5 5.4
2018-Jul-08 10:34N 36°05' W 005°22'0 4.9
2018-Jul-08 10:31N 36°05' W 005°22'5 9.3
2018-Jul-08 10:01N 36°04' W 005°16'8120.1
2018-Jul-08 06:00N 36°06' W 003°36'   080 / 41021.1 5.4 21.010.020.0

Dump ship's entire track history